sensor_id;sensor_type;location;lat;lon;timestamp;P1;durP1;ratioP1;P2;durP2;ratioP2
8777;SDS011;4425;50.872;4.712;2023-04-03T00:01:40;6.90;;;6.30;;
8777;SDS011;4425;50.872;4.712;2023-04-03T00:04:09;7.00;;;6.30;;
8777;SDS011;4425;50.872;4.712;2023-04-03T00:06:36;7.40;;;6.15;;
8777;SDS011;4425;50.872;4.712;2023-04-03T00:09:03;7.72;;;6.65;;
8777;SDS011;4425;50.872;4.712;2023-04-03T00:11:30;9.17;;;6.70;;
8777;SDS011;4425;50.872;4.712;2023-04-03T00:13:56;7.03;;;6.40;;
8777;SDS011;4425;50.872;4.712;2023-04-03T00:16:23;7.28;;;6.57;;
8777;SDS011;4425;50.872;4.712;2023-04-03T00:18:51;7.93;;;6.70;;
8777;SDS011;4425;50.872;4.712;2023-04-03T00:21:19;6.80;;;6.10;;
8777;SDS011;4425;50.872;4.712;2023-04-03T00:23:46;7.80;;;6.45;;
8777;SDS011;4425;50.872;4.712;2023-04-03T00:26:13;7.88;;;6.13;;
8777;SDS011;4425;50.872;4.712;2023-04-03T00:28:40;6.80;;;6.10;;
8777;SDS011;4425;50.872;4.712;2023-04-03T00:31:07;6.93;;;6.22;;
8777;SDS011;4425;50.872;4.712;2023-04-03T00:33:34;7.00;;;6.03;;
8777;SDS011;4425;50.872;4.712;2023-04-03T00:36:05;6.82;;;6.13;;
8777;SDS011;4425;50.872;4.712;2023-04-03T00:38:34;7.90;;;6.70;;
8777;SDS011;4425;50.872;4.712;2023-04-03T00:41:01;6.97;;;6.38;;
8777;SDS011;4425;50.872;4.712;2023-04-03T00:43:28;7.10;;;6.40;;
8777;SDS011;4425;50.872;4.712;2023-04-03T00:45:55;6.90;;;6.10;;
8777;SDS011;4425;50.872;4.712;2023-04-03T00:48:23;9.52;;;6.50;;
8777;SDS011;4425;50.872;4.712;2023-04-03T00:50:52;10.05;;;6.53;;
8777;SDS011;4425;50.872;4.712;2023-04-03T00:53:21;7.82;;;6.15;;
8777;SDS011;4425;50.872;4.712;2023-04-03T00:55:55;6.78;;;6.05;;
8777;SDS011;4425;50.872;4.712;2023-04-03T00:58:25;6.45;;;5.85;;
8777;SDS011;4425;50.872;4.712;2023-04-03T01:00:57;7.45;;;6.18;;
8777;SDS011;4425;50.872;4.712;2023-04-03T01:03:25;8.00;;;6.60;;
8777;SDS011;4425;50.872;4.712;2023-04-03T01:05:52;6.80;;;6.05;;
8777;SDS011;4425;50.872;4.712;2023-04-03T01:08:19;7.30;;;6.57;;
8777;SDS011;4425;50.872;4.712;2023-04-03T01:10:46;8.00;;;6.28;;
8777;SDS011;4425;50.872;4.712;2023-04-03T01:13:19;8.93;;;6.50;;
8777;SDS011;4425;50.872;4.712;2023-04-03T01:15:48;8.05;;;6.32;;
8777;SDS011;4425;50.872;4.712;2023-04-03T01:18:15;8.02;;;6.47;;
8777;SDS011;4425;50.872;4.712;2023-04-03T01:23:46;7.57;;;6.60;;
8777;SDS011;4425;50.872;4.712;2023-04-03T01:26:19;7.10;;;6.45;;
8777;SDS011;4425;50.872;4.712;2023-04-03T01:28:47;8.30;;;6.65;;
8777;SDS011;4425;50.872;4.712;2023-04-03T01:31:18;7.18;;;6.50;;
8777;SDS011;4425;50.872;4.712;2023-04-03T01:33:52;6.93;;;6.28;;
8777;SDS011;4425;50.872;4.712;2023-04-03T01:36:21;6.80;;;6.20;;
8777;SDS011;4425;50.872;4.712;2023-04-03T01:38:49;7.15;;;6.35;;
8777;SDS011;4425;50.872;4.712;2023-04-03T01:41:17;7.28;;;6.28;;
8777;SDS011;4425;50.872;4.712;2023-04-03T01:43:45;7.40;;;6.60;;
8777;SDS011;4425;50.872;4.712;2023-04-03T01:46:13;6.90;;;6.20;;
8777;SDS011;4425;50.872;4.712;2023-04-03T01:48:40;7.10;;;6.50;;
8777;SDS011;4425;50.872;4.712;2023-04-03T01:51:08;7.00;;;6.30;;
8777;SDS011;4425;50.872;4.712;2023-04-03T01:53:36;8.32;;;6.28;;
8777;SDS011;4425;50.872;4.712;2023-04-03T01:56:03;7.40;;;6.60;;
8777;SDS011;4425;50.872;4.712;2023-04-03T01:58:31;7.30;;;6.45;;
8777;SDS011;4425;50.872;4.712;2023-04-03T02:00:58;6.95;;;6.28;;
8777;SDS011;4425;50.872;4.712;2023-04-03T02:03:25;7.18;;;6.53;;
8777;SDS011;4425;50.872;4.712;2023-04-03T02:05:52;7.90;;;6.70;;
8777;SDS011;4425;50.872;4.712;2023-04-03T02:08:20;7.32;;;6.60;;
8777;SDS011;4425;50.872;4.712;2023-04-03T02:10:48;7.60;;;6.28;;
8777;SDS011;4425;50.872;4.712;2023-04-03T02:13:15;7.88;;;6.20;;
8777;SDS011;4425;50.872;4.712;2023-04-03T02:15:42;7.85;;;6.90;;
8777;SDS011;4425;50.872;4.712;2023-04-03T02:18:10;7.25;;;6.55;;
8777;SDS011;4425;50.872;4.712;2023-04-03T02:20:38;7.18;;;6.50;;
8777;SDS011;4425;50.872;4.712;2023-04-03T02:23:06;7.43;;;6.70;;
8777;SDS011;4425;50.872;4.712;2023-04-03T02:25:35;9.13;;;7.07;;
8777;SDS011;4425;50.872;4.712;2023-04-03T02:28:02;7.85;;;7.05;;
8777;SDS011;4425;50.872;4.712;2023-04-03T02:30:29;7.57;;;6.82;;
8777;SDS011;4425;50.872;4.712;2023-04-03T02:32:56;9.23;;;6.78;;
8777;SDS011;4425;50.872;4.712;2023-04-03T02:35:23;10.10;;;7.00;;
8777;SDS011;4425;50.872;4.712;2023-04-03T02:37:50;8.02;;;6.88;;
8777;SDS011;4425;50.872;4.712;2023-04-03T02:40:17;7.97;;;7.00;;
8777;SDS011;4425;50.872;4.712;2023-04-03T02:42:45;8.15;;;6.90;;
8777;SDS011;4425;50.872;4.712;2023-04-03T02:45:13;11.10;;;7.22;;
8777;SDS011;4425;50.872;4.712;2023-04-03T02:47:40;7.68;;;6.95;;
8777;SDS011;4425;50.872;4.712;2023-04-03T02:50:07;7.88;;;7.15;;
8777;SDS011;4425;50.872;4.712;2023-04-03T02:52:35;7.63;;;6.90;;
8777;SDS011;4425;50.872;4.712;2023-04-03T02:55:02;8.35;;;7.18;;
8777;SDS011;4425;50.872;4.712;2023-04-03T02:57:29;7.70;;;7.00;;
8777;SDS011;4425;50.872;4.712;2023-04-03T02:59:57;7.93;;;7.05;;
8777;SDS011;4425;50.872;4.712;2023-04-03T03:02:24;8.02;;;7.22;;
8777;SDS011;4425;50.872;4.712;2023-04-03T03:04:51;8.30;;;7.43;;
8777;SDS011;4425;50.872;4.712;2023-04-03T03:07:18;8.75;;;7.50;;
8777;SDS011;4425;50.872;4.712;2023-04-03T03:09:45;7.97;;;7.18;;
8777;SDS011;4425;50.872;4.712;2023-04-03T03:12:12;8.13;;;6.90;;
8777;SDS011;4425;50.872;4.712;2023-04-03T03:14:39;8.38;;;7.10;;
8777;SDS011;4425;50.872;4.712;2023-04-03T03:17:09;8.80;;;7.00;;
8777;SDS011;4425;50.872;4.712;2023-04-03T03:19:36;7.47;;;6.72;;
8777;SDS011;4425;50.872;4.712;2023-04-03T03:22:03;8.03;;;7.23;;
8777;SDS011;4425;50.872;4.712;2023-04-03T03:24:30;8.05;;;7.25;;
8777;SDS011;4425;50.872;4.712;2023-04-03T03:26:57;8.77;;;7.72;;
8777;SDS011;4425;50.872;4.712;2023-04-03T03:29:24;7.55;;;6.95;;
8777;SDS011;4425;50.872;4.712;2023-04-03T03:31:50;7.88;;;7.18;;
8777;SDS011;4425;50.872;4.712;2023-04-03T03:34:19;8.00;;;7.20;;
8777;SDS011;4425;50.872;4.712;2023-04-03T03:36:47;7.60;;;6.90;;
8777;SDS011;4425;50.872;4.712;2023-04-03T03:39:14;7.83;;;7.00;;
8777;SDS011;4425;50.872;4.712;2023-04-03T03:41:41;8.18;;;7.10;;
8777;SDS011;4425;50.872;4.712;2023-04-03T03:44:08;8.15;;;7.47;;
8777;SDS011;4425;50.872;4.712;2023-04-03T03:46:35;9.40;;;7.38;;
8777;SDS011;4425;50.872;4.712;2023-04-03T03:49:02;8.83;;;7.90;;
8777;SDS011;4425;50.872;4.712;2023-04-03T03:51:30;7.90;;;7.00;;
8777;SDS011;4425;50.872;4.712;2023-04-03T03:53:57;8.45;;;7.60;;
8777;SDS011;4425;50.872;4.712;2023-04-03T03:56:24;8.68;;;7.70;;
8777;SDS011;4425;50.872;4.712;2023-04-03T03:58:51;8.18;;;7.38;;
8777;SDS011;4425;50.872;4.712;2023-04-03T04:01:18;7.97;;;7.20;;
8777;SDS011;4425;50.872;4.712;2023-04-03T04:03:45;8.38;;;7.43;;
8777;SDS011;4425;50.872;4.712;2023-04-03T04:06:12;8.57;;;7.57;;
8777;SDS011;4425;50.872;4.712;2023-04-03T04:08:41;9.80;;;7.33;;
8777;SDS011;4425;50.872;4.712;2023-04-03T04:11:08;8.73;;;7.93;;
8777;SDS011;4425;50.872;4.712;2023-04-03T04:13:35;10.73;;;8.10;;
8777;SDS011;4425;50.872;4.712;2023-04-03T04:16:02;9.07;;;8.10;;
8777;SDS011;4425;50.872;4.712;2023-04-03T04:18:29;9.30;;;8.30;;
8777;SDS011;4425;50.872;4.712;2023-04-03T04:20:56;9.02;;;8.05;;
8777;SDS011;4425;50.872;4.712;2023-04-03T04:23:23;8.75;;;7.95;;
8777;SDS011;4425;50.872;4.712;2023-04-03T04:25:52;11.50;;;8.60;;
8777;SDS011;4425;50.872;4.712;2023-04-03T04:28:19;9.23;;;8.33;;
8777;SDS011;4425;50.872;4.712;2023-04-03T04:30:45;9.00;;;8.15;;
8777;SDS011;4425;50.872;4.712;2023-04-03T04:33:12;9.27;;;8.48;;
8777;SDS011;4425;50.872;4.712;2023-04-03T04:35:41;9.20;;;8.30;;
8777;SDS011;4425;50.872;4.712;2023-04-03T04:38:08;9.43;;;8.52;;
8777;SDS011;4425;50.872;4.712;2023-04-03T04:40:35;9.70;;;8.80;;
8777;SDS011;4425;50.872;4.712;2023-04-03T04:43:04;10.98;;;9.88;;
8777;SDS011;4425;50.872;4.712;2023-04-03T04:45:31;10.50;;;9.60;;
8777;SDS011;4425;50.872;4.712;2023-04-03T04:47:58;10.63;;;9.30;;
8777;SDS011;4425;50.872;4.712;2023-04-03T04:50:25;11.15;;;9.23;;
8777;SDS011;4425;50.872;4.712;2023-04-03T04:52:52;10.60;;;9.40;;
8777;SDS011;4425;50.872;4.712;2023-04-03T04:55:19;10.70;;;9.60;;
8777;SDS011;4425;50.872;4.712;2023-04-03T04:57:46;10.55;;;9.55;;
8777;SDS011;4425;50.872;4.712;2023-04-03T05:00:16;11.80;;;9.40;;
8777;SDS011;4425;50.872;4.712;2023-04-03T05:02:44;10.63;;;9.55;;
8777;SDS011;4425;50.872;4.712;2023-04-03T05:05:11;11.00;;;9.93;;
8777;SDS011;4425;50.872;4.712;2023-04-03T05:07:38;11.50;;;10.32;;
8777;SDS011;4425;50.872;4.712;2023-04-03T05:10:06;11.05;;;10.05;;
8777;SDS011;4425;50.872;4.712;2023-04-03T05:12:35;11.10;;;10.05;;
8777;SDS011;4425;50.872;4.712;2023-04-03T05:15:02;11.37;;;10.33;;
8777;SDS011;4425;50.872;4.712;2023-04-03T05:17:30;12.05;;;10.70;;
8777;SDS011;4425;50.872;4.712;2023-04-03T05:19:57;11.40;;;10.23;;
8777;SDS011;4425;50.872;4.712;2023-04-03T05:22:24;11.13;;;10.02;;
8777;SDS011;4425;50.872;4.712;2023-04-03T05:24:51;10.90;;;9.88;;
8777;SDS011;4425;50.872;4.712;2023-04-03T05:27:18;12.07;;;10.50;;
8777;SDS011;4425;50.872;4.712;2023-04-03T05:29:45;11.55;;;10.45;;
8777;SDS011;4425;50.872;4.712;2023-04-03T05:32:12;12.15;;;10.82;;
8777;SDS011;4425;50.872;4.712;2023-04-03T05:34:40;11.60;;;10.50;;
8777;SDS011;4425;50.872;4.712;2023-04-03T05:37:07;12.20;;;10.75;;
8777;SDS011;4425;50.872;4.712;2023-04-03T05:39:34;12.30;;;11.05;;
8777;SDS011;4425;50.872;4.712;2023-04-03T05:42:01;12.05;;;10.93;;
8777;SDS011;4425;50.872;4.712;2023-04-03T05:44:28;12.30;;;11.10;;
8777;SDS011;4425;50.872;4.712;2023-04-03T05:46:55;12.52;;;11.32;;
8777;SDS011;4425;50.872;4.712;2023-04-03T05:49:22;12.40;;;11.23;;
8777;SDS011;4425;50.872;4.712;2023-04-03T05:51:50;12.67;;;11.37;;
8777;SDS011;4425;50.872;4.712;2023-04-03T05:54:18;15.02;;;11.52;;
8777;SDS011;4425;50.872;4.712;2023-04-03T05:56:48;12.38;;;11.13;;
8777;SDS011;4425;50.872;4.712;2023-04-03T05:59:16;12.20;;;11.10;;
8777;SDS011;4425;50.872;4.712;2023-04-03T06:01:43;12.60;;;11.32;;
8777;SDS011;4425;50.872;4.712;2023-04-03T06:04:10;14.55;;;12.02;;
8777;SDS011;4425;50.872;4.712;2023-04-03T06:06:45;17.70;;;12.32;;
8777;SDS011;4425;50.872;4.712;2023-04-03T06:09:15;16.30;;;12.43;;
8777;SDS011;4425;50.872;4.712;2023-04-03T06:11:42;19.55;;;12.75;;
8777;SDS011;4425;50.872;4.712;2023-04-03T06:14:10;15.90;;;12.10;;
8777;SDS011;4425;50.872;4.712;2023-04-03T06:16:37;13.65;;;12.20;;
8777;SDS011;4425;50.872;4.712;2023-04-03T06:19:05;13.18;;;11.85;;
8777;SDS011;4425;50.872;4.712;2023-04-03T06:21:32;14.43;;;12.57;;
8777;SDS011;4425;50.872;4.712;2023-04-03T06:24:00;15.73;;;13.20;;
8777;SDS011;4425;50.872;4.712;2023-04-03T06:26:29;28.33;;;14.05;;
8777;SDS011;4425;50.872;4.712;2023-04-03T06:28:56;30.58;;;14.50;;
8777;SDS011;4425;50.872;4.712;2023-04-03T06:31:23;15.55;;;13.27;;
8777;SDS011;4425;50.872;4.712;2023-04-03T06:33:50;22.92;;;13.63;;
8777;SDS011;4425;50.872;4.712;2023-04-03T06:36:18;19.17;;;13.23;;
8777;SDS011;4425;50.872;4.712;2023-04-03T06:38:46;16.10;;;13.00;;
8777;SDS011;4425;50.872;4.712;2023-04-03T06:41:14;18.67;;;12.32;;
8777;SDS011;4425;50.872;4.712;2023-04-03T06:43:43;14.80;;;12.40;;
8777;SDS011;4425;50.872;4.712;2023-04-03T06:46:12;13.50;;;12.10;;
8777;SDS011;4425;50.872;4.712;2023-04-03T06:48:41;13.00;;;11.70;;
8777;SDS011;4425;50.872;4.712;2023-04-03T06:51:11;11.57;;;10.48;;
8777;SDS011;4425;50.872;4.712;2023-04-03T06:53:44;10.93;;;9.93;;
8777;SDS011;4425;50.872;4.712;2023-04-03T06:56:12;14.32;;;9.35;;
8777;SDS011;4425;50.872;4.712;2023-04-03T06:58:41;14.50;;;9.07;;
8777;SDS011;4425;50.872;4.712;2023-04-03T07:01:10;12.25;;;8.73;;
8777;SDS011;4425;50.872;4.712;2023-04-03T07:03:39;9.68;;;7.88;;
8777;SDS011;4425;50.872;4.712;2023-04-03T07:06:06;12.70;;;8.02;;
8777;SDS011;4425;50.872;4.712;2023-04-03T07:08:35;10.65;;;7.50;;
8777;SDS011;4425;50.872;4.712;2023-04-03T07:11:02;9.32;;;7.05;;
8777;SDS011;4425;50.872;4.712;2023-04-03T07:13:29;7.55;;;6.82;;
8777;SDS011;4425;50.872;4.712;2023-04-03T07:15:59;7.90;;;7.10;;
8777;SDS011;4425;50.872;4.712;2023-04-03T07:18:26;8.07;;;7.10;;
8777;SDS011;4425;50.872;4.712;2023-04-03T07:20:54;8.10;;;6.90;;
8777;SDS011;4425;50.872;4.712;2023-04-03T07:23:21;7.30;;;6.70;;
8777;SDS011;4425;50.872;4.712;2023-04-03T07:25:49;8.65;;;6.63;;
8777;SDS011;4425;50.872;4.712;2023-04-03T07:28:17;8.05;;;6.40;;
8777;SDS011;4425;50.872;4.712;2023-04-03T07:30:46;9.45;;;6.57;;
8777;SDS011;4425;50.872;4.712;2023-04-03T07:33:17;9.03;;;6.60;;
8777;SDS011;4425;50.872;4.712;2023-04-03T07:35:45;8.65;;;6.40;;
8777;SDS011;4425;50.872;4.712;2023-04-03T07:38:13;10.40;;;6.32;;
8777;SDS011;4425;50.872;4.712;2023-04-03T07:40:44;7.07;;;5.65;;
8777;SDS011;4425;50.872;4.712;2023-04-03T07:43:12;8.38;;;5.70;;
8777;SDS011;4425;50.872;4.712;2023-04-03T07:45:40;6.40;;;5.78;;
8777;SDS011;4425;50.872;4.712;2023-04-03T07:48:08;8.23;;;6.00;;
8777;SDS011;4425;50.872;4.712;2023-04-03T07:50:37;6.65;;;5.72;;
8777;SDS011;4425;50.872;4.712;2023-04-03T07:53:06;6.22;;;5.60;;
8777;SDS011;4425;50.872;4.712;2023-04-03T07:55:33;5.57;;;5.07;;
8777;SDS011;4425;50.872;4.712;2023-04-03T07:58:07;5.77;;;5.13;;
8777;SDS011;4425;50.872;4.712;2023-04-03T08:00:35;6.47;;;5.10;;
8777;SDS011;4425;50.872;4.712;2023-04-03T08:03:03;7.03;;;5.18;;
8777;SDS011;4425;50.872;4.712;2023-04-03T08:05:30;6.53;;;5.05;;
8777;SDS011;4425;50.872;4.712;2023-04-03T08:07:59;5.82;;;4.90;;
8777;SDS011;4425;50.872;4.712;2023-04-03T08:10:26;6.03;;;4.97;;
8777;SDS011;4425;50.872;4.712;2023-04-03T08:12:55;5.80;;;4.80;;
8777;SDS011;4425;50.872;4.712;2023-04-03T08:15:22;7.93;;;5.10;;
8777;SDS011;4425;50.872;4.712;2023-04-03T08:17:49;7.47;;;5.00;;
8777;SDS011;4425;50.872;4.712;2023-04-03T08:20:16;6.88;;;4.70;;
8777;SDS011;4425;50.872;4.712;2023-04-03T08:22:44;5.28;;;4.78;;
8777;SDS011;4425;50.872;4.712;2023-04-03T08:25:13;6.38;;;4.70;;
8777;SDS011;4425;50.872;4.712;2023-04-03T08:27:40;7.47;;;4.80;;
8777;SDS011;4425;50.872;4.712;2023-04-03T08:30:08;5.07;;;4.68;;
8777;SDS011;4425;50.872;4.712;2023-04-03T08:32:35;6.60;;;4.93;;
8777;SDS011;4425;50.872;4.712;2023-04-03T08:35:02;7.70;;;4.83;;
8777;SDS011;4425;50.872;4.712;2023-04-03T08:37:29;5.05;;;4.53;;
8777;SDS011;4425;50.872;4.712;2023-04-03T08:39:57;5.63;;;4.20;;
8777;SDS011;4425;50.872;4.712;2023-04-03T08:42:31;6.17;;;4.37;;
8777;SDS011;4425;50.872;4.712;2023-04-03T08:45:09;5.15;;;4.00;;
8777;SDS011;4425;50.872;4.712;2023-04-03T08:47:40;6.20;;;4.37;;
8777;SDS011;4425;50.872;4.712;2023-04-03T08:50:14;7.05;;;4.50;;
8777;SDS011;4425;50.872;4.712;2023-04-03T08:52:44;6.35;;;4.40;;
8777;SDS011;4425;50.872;4.712;2023-04-03T08:55:17;7.20;;;4.50;;
8777;SDS011;4425;50.872;4.712;2023-04-03T08:57:50;6.55;;;4.50;;
8777;SDS011;4425;50.872;4.712;2023-04-03T09:00:24;6.57;;;4.40;;
8777;SDS011;4425;50.872;4.712;2023-04-03T09:02:54;5.38;;;3.80;;
8777;SDS011;4425;50.872;4.712;2023-04-03T09:05:25;5.30;;;3.83;;
8777;SDS011;4425;50.872;4.712;2023-04-03T09:08:05;6.68;;;4.10;;
8777;SDS011;4425;50.872;4.712;2023-04-03T09:10:39;6.22;;;3.70;;
8777;SDS011;4425;50.872;4.712;2023-04-03T09:13:10;7.60;;;3.90;;
8777;SDS011;4425;50.872;4.712;2023-04-03T09:15:46;4.85;;;3.22;;
8777;SDS011;4425;50.872;4.712;2023-04-03T09:18:15;7.20;;;3.90;;
8777;SDS011;4425;50.872;4.712;2023-04-03T09:20:46;5.00;;;3.72;;
8777;SDS011;4425;50.872;4.712;2023-04-03T09:23:24;4.97;;;3.28;;
8777;SDS011;4425;50.872;4.712;2023-04-03T09:26:05;4.55;;;3.67;;
8777;SDS011;4425;50.872;4.712;2023-04-03T09:28:39;4.95;;;3.50;;
8777;SDS011;4425;50.872;4.712;2023-04-03T09:31:12;5.13;;;3.78;;
8777;SDS011;4425;50.872;4.712;2023-04-03T09:33:44;5.70;;;3.30;;
8777;SDS011;4425;50.872;4.712;2023-04-03T09:36:12;3.95;;;3.10;;
8777;SDS011;4425;50.872;4.712;2023-04-03T09:38:40;3.78;;;3.13;;
8777;SDS011;4425;50.872;4.712;2023-04-03T09:41:09;6.22;;;3.50;;
8777;SDS011;4425;50.872;4.712;2023-04-03T09:43:51;4.30;;;3.40;;
8777;SDS011;4425;50.872;4.712;2023-04-03T09:46:24;4.95;;;3.90;;
8777;SDS011;4425;50.872;4.712;2023-04-03T09:48:58;6.30;;;4.03;;
8777;SDS011;4425;50.872;4.712;2023-04-03T09:51:26;6.00;;;3.80;;
8777;SDS011;4425;50.872;4.712;2023-04-03T09:53:55;7.15;;;4.45;;
8777;SDS011;4425;50.872;4.712;2023-04-03T09:56:23;12.15;;;4.38;;
8777;SDS011;4425;50.872;4.712;2023-04-03T09:59:05;5.88;;;3.90;;
8777;SDS011;4425;50.872;4.712;2023-04-03T10:01:41;4.88;;;3.50;;
8777;SDS011;4425;50.872;4.712;2023-04-03T10:04:12;5.45;;;3.33;;
8777;SDS011;4425;50.872;4.712;2023-04-03T10:06:41;5.38;;;3.35;;
8777;SDS011;4425;50.872;4.712;2023-04-03T10:09:16;5.82;;;3.50;;
8777;SDS011;4425;50.872;4.712;2023-04-03T10:11:59;4.57;;;3.40;;
8777;SDS011;4425;50.872;4.712;2023-04-03T10:14:31;6.22;;;3.70;;
8777;SDS011;4425;50.872;4.712;2023-04-03T10:17:01;5.35;;;3.63;;
8777;SDS011;4425;50.872;4.712;2023-04-03T10:19:38;5.55;;;3.70;;
8777;SDS011;4425;50.872;4.712;2023-04-03T10:25:04;5.93;;;3.63;;
8777;SDS011;4425;50.872;4.712;2023-04-03T10:27:46;4.45;;;3.42;;
8777;SDS011;4425;50.872;4.712;2023-04-03T10:30:32;3.85;;;3.30;;
8777;SDS011;4425;50.872;4.712;2023-04-03T10:33:18;4.93;;;3.17;;
8777;SDS011;4425;50.872;4.712;2023-04-03T10:35:59;4.10;;;2.92;;
8777;SDS011;4425;50.872;4.712;2023-04-03T10:38:37;4.47;;;3.30;;
8777;SDS011;4425;50.872;4.712;2023-04-03T10:41:11;5.87;;;2.87;;
8777;SDS011;4425;50.872;4.712;2023-04-03T10:43:44;4.78;;;2.83;;
8777;SDS011;4425;50.872;4.712;2023-04-03T10:46:20;4.25;;;2.90;;
8777;SDS011;4425;50.872;4.712;2023-04-03T10:51:48;4.22;;;2.70;;
8777;SDS011;4425;50.872;4.712;2023-04-03T10:54:22;3.97;;;2.50;;
8777;SDS011;4425;50.872;4.712;2023-04-03T10:56:53;4.63;;;2.40;;
8777;SDS011;4425;50.872;4.712;2023-04-03T10:59:27;2.95;;;2.45;;
8777;SDS011;4425;50.872;4.712;2023-04-03T11:02:00;2.30;;;2.10;;
8777;SDS011;4425;50.872;4.712;2023-04-03T11:04:34;4.18;;;2.50;;
8777;SDS011;4425;50.872;4.712;2023-04-03T11:07:06;3.42;;;2.35;;
8777;SDS011;4425;50.872;4.712;2023-04-03T11:09:37;4.60;;;2.35;;
8777;SDS011;4425;50.872;4.712;2023-04-03T11:12:09;4.37;;;2.57;;
8777;SDS011;4425;50.872;4.712;2023-04-03T11:14:41;4.18;;;2.40;;
8777;SDS011;4425;50.872;4.712;2023-04-03T11:17:19;3.47;;;2.47;;
8777;SDS011;4425;50.872;4.712;2023-04-03T11:19:59;4.13;;;2.20;;
8777;SDS011;4425;50.872;4.712;2023-04-03T11:22:32;5.45;;;2.30;;
8777;SDS011;4425;50.872;4.712;2023-04-03T11:25:03;2.20;;;1.98;;
8777;SDS011;4425;50.872;4.712;2023-04-03T11:27:34;2.10;;;1.90;;
8777;SDS011;4425;50.872;4.712;2023-04-03T11:30:07;2.65;;;1.98;;
8777;SDS011;4425;50.872;4.712;2023-04-03T11:32:48;2.42;;;1.92;;
8777;SDS011;4425;50.872;4.712;2023-04-03T11:35:28;2.72;;;2.10;;
8777;SDS011;4425;50.872;4.712;2023-04-03T11:37:57;3.70;;;2.15;;
8777;SDS011;4425;50.872;4.712;2023-04-03T11:40:28;3.60;;;2.10;;
8777;SDS011;4425;50.872;4.712;2023-04-03T11:43:03;3.75;;;2.33;;
8777;SDS011;4425;50.872;4.712;2023-04-03T11:45:34;2.53;;;2.22;;
8777;SDS011;4425;50.872;4.712;2023-04-03T11:48:09;3.30;;;2.60;;
8777;SDS011;4425;50.872;4.712;2023-04-03T12:09:59;2.10;;;1.98;;
8777;SDS011;4425;50.872;4.712;2023-04-03T12:12:31;2.50;;;2.15;;
8777;SDS011;4425;50.872;4.712;2023-04-03T12:15:12;2.22;;;2.03;;
8777;SDS011;4425;50.872;4.712;2023-04-03T12:17:51;3.17;;;2.20;;
8777;SDS011;4425;50.872;4.712;2023-04-03T12:23:28;2.47;;;1.90;;
8777;SDS011;4425;50.872;4.712;2023-04-03T12:26:01;2.78;;;2.05;;
8777;SDS011;4425;50.872;4.712;2023-04-03T12:28:38;3.00;;;2.00;;
8777;SDS011;4425;50.872;4.712;2023-04-03T12:31:08;1.80;;;1.70;;
8777;SDS011;4425;50.872;4.712;2023-04-03T12:33:38;3.85;;;1.95;;
8777;SDS011;4425;50.872;4.712;2023-04-03T12:36:28;1.88;;;1.67;;
8777;SDS011;4425;50.872;4.712;2023-04-03T12:42:20;2.08;;;1.90;;
8777;SDS011;4425;50.872;4.712;2023-04-03T12:44:59;1.77;;;1.67;;
8777;SDS011;4425;50.872;4.712;2023-04-03T12:47:36;2.65;;;1.70;;
8777;SDS011;4425;50.872;4.712;2023-04-03T12:50:15;1.90;;;1.80;;
8777;SDS011;4425;50.872;4.712;2023-04-03T12:52:47;2.72;;;1.77;;
8777;SDS011;4425;50.872;4.712;2023-04-03T12:55:20;2.10;;;1.92;;
8777;SDS011;4425;50.872;4.712;2023-04-03T12:57:47;3.15;;;2.20;;
8777;SDS011;4425;50.872;4.712;2023-04-03T13:00:19;2.30;;;2.10;;
8777;SDS011;4425;50.872;4.712;2023-04-03T13:02:55;2.55;;;2.20;;
8777;SDS011;4425;50.872;4.712;2023-04-03T13:05:23;2.50;;;2.00;;
8777;SDS011;4425;50.872;4.712;2023-04-03T13:07:52;3.28;;;2.10;;
8777;SDS011;4425;50.872;4.712;2023-04-03T13:10:24;2.45;;;2.20;;
8777;SDS011;4425;50.872;4.712;2023-04-03T13:12:54;2.75;;;2.20;;
8777;SDS011;4425;50.872;4.712;2023-04-03T13:15:24;2.37;;;2.17;;
8777;SDS011;4425;50.872;4.712;2023-04-03T13:17:53;2.58;;;2.30;;
8777;SDS011;4425;50.872;4.712;2023-04-03T13:20:23;2.47;;;2.20;;
8777;SDS011;4425;50.872;4.712;2023-04-03T13:22:53;2.97;;;2.05;;
8777;SDS011;4425;50.872;4.712;2023-04-03T13:25:30;2.20;;;2.00;;
8777;SDS011;4425;50.872;4.712;2023-04-03T13:27:59;3.67;;;2.20;;
8777;SDS011;4425;50.872;4.712;2023-04-03T13:30:29;3.45;;;2.40;;
8777;SDS011;4425;50.872;4.712;2023-04-03T13:32:58;3.40;;;2.13;;
8777;SDS011;4425;50.872;4.712;2023-04-03T13:35:31;3.25;;;2.53;;
8777;SDS011;4425;50.872;4.712;2023-04-03T13:38:04;2.53;;;1.90;;
8777;SDS011;4425;50.872;4.712;2023-04-03T13:40:35;3.00;;;1.77;;
8777;SDS011;4425;50.872;4.712;2023-04-03T13:43:18;3.77;;;2.03;;
8777;SDS011;4425;50.872;4.712;2023-04-03T13:45:53;2.45;;;2.00;;
8777;SDS011;4425;50.872;4.712;2023-04-03T13:48:22;2.28;;;1.80;;
8777;SDS011;4425;50.872;4.712;2023-04-03T13:50:51;2.72;;;2.03;;
8777;SDS011;4425;50.872;4.712;2023-04-03T13:53:21;3.45;;;2.10;;
8777;SDS011;4425;50.872;4.712;2023-04-03T13:56:04;2.63;;;2.33;;
8777;SDS011;4425;50.872;4.712;2023-04-03T13:58:33;3.95;;;2.00;;
8777;SDS011;4425;50.872;4.712;2023-04-03T14:01:06;3.17;;;2.03;;
8777;SDS011;4425;50.872;4.712;2023-04-03T14:03:41;3.67;;;2.00;;
8777;SDS011;4425;50.872;4.712;2023-04-03T14:06:10;1.85;;;1.75;;
8777;SDS011;4425;50.872;4.712;2023-04-03T14:08:38;3.28;;;2.03;;
8777;SDS011;4425;50.872;4.712;2023-04-03T14:11:12;2.10;;;1.90;;
8777;SDS011;4425;50.872;4.712;2023-04-03T14:13:41;2.60;;;1.95;;
8777;SDS011;4425;50.872;4.712;2023-04-03T14:16:12;2.85;;;1.85;;
8777;SDS011;4425;50.872;4.712;2023-04-03T14:18:41;1.95;;;1.80;;
8777;SDS011;4425;50.872;4.712;2023-04-03T14:21:09;2.45;;;1.90;;
8777;SDS011;4425;50.872;4.712;2023-04-03T14:23:38;3.50;;;2.00;;
8777;SDS011;4425;50.872;4.712;2023-04-03T14:26:08;2.65;;;2.10;;
8777;SDS011;4425;50.872;4.712;2023-04-03T14:28:39;2.30;;;2.10;;
8777;SDS011;4425;50.872;4.712;2023-04-03T14:31:06;3.13;;;2.20;;
8777;SDS011;4425;50.872;4.712;2023-04-03T14:33:33;2.30;;;2.10;;
8777;SDS011;4425;50.872;4.712;2023-04-03T14:36:01;3.58;;;2.20;;
8777;SDS011;4425;50.872;4.712;2023-04-03T14:38:32;2.70;;;2.30;;
8777;SDS011;4425;50.872;4.712;2023-04-03T14:40:59;2.27;;;2.10;;
8777;SDS011;4425;50.872;4.712;2023-04-03T14:43:27;3.17;;;2.20;;
8777;SDS011;4425;50.872;4.712;2023-04-03T14:45:54;2.70;;;2.20;;
8777;SDS011;4425;50.872;4.712;2023-04-03T14:48:22;3.93;;;2.30;;
8777;SDS011;4425;50.872;4.712;2023-04-03T14:50:51;2.60;;;2.30;;
8777;SDS011;4425;50.872;4.712;2023-04-03T14:53:20;4.00;;;2.50;;
8777;SDS011;4425;50.872;4.712;2023-04-03T14:55:50;3.00;;;2.40;;
8777;SDS011;4425;50.872;4.712;2023-04-03T14:58:17;3.28;;;2.47;;
8777;SDS011;4425;50.872;4.712;2023-04-03T15:00:47;3.55;;;2.30;;
8777;SDS011;4425;50.872;4.712;2023-04-03T15:03:14;3.22;;;2.40;;
8777;SDS011;4425;50.872;4.712;2023-04-03T15:05:43;3.17;;;2.33;;
8777;SDS011;4425;50.872;4.712;2023-04-03T15:08:15;2.92;;;2.40;;
8777;SDS011;4425;50.872;4.712;2023-04-03T15:10:45;3.40;;;2.55;;
8777;SDS011;4425;50.872;4.712;2023-04-03T15:13:13;4.45;;;2.50;;
8777;SDS011;4425;50.872;4.712;2023-04-03T15:15:40;6.07;;;2.63;;
8777;SDS011;4425;50.872;4.712;2023-04-03T15:18:11;2.60;;;2.40;;
8777;SDS011;4425;50.872;4.712;2023-04-03T15:20:43;2.90;;;2.70;;
8777;SDS011;4425;50.872;4.712;2023-04-03T15:23:11;3.60;;;2.60;;
8777;SDS011;4425;50.872;4.712;2023-04-03T15:25:38;3.42;;;2.70;;
8777;SDS011;4425;50.872;4.712;2023-04-03T15:28:06;3.97;;;2.70;;
8777;SDS011;4425;50.872;4.712;2023-04-03T15:30:36;14.82;;;3.33;;
8777;SDS011;4425;50.872;4.712;2023-04-03T15:33:06;5.20;;;2.72;;
8777;SDS011;4425;50.872;4.712;2023-04-03T15:35:34;3.08;;;2.70;;
8777;SDS011;4425;50.872;4.712;2023-04-03T15:38:01;2.72;;;2.40;;
8777;SDS011;4425;50.872;4.712;2023-04-03T15:40:28;3.67;;;2.70;;
8777;SDS011;4425;50.872;4.712;2023-04-03T15:42:55;4.78;;;2.80;;
8777;SDS011;4425;50.872;4.712;2023-04-03T15:45:22;4.55;;;3.10;;
8777;SDS011;4425;50.872;4.712;2023-04-03T15:47:52;3.97;;;2.80;;
8777;SDS011;4425;50.872;4.712;2023-04-03T15:50:19;4.80;;;2.90;;
8777;SDS011;4425;50.872;4.712;2023-04-03T15:52:49;5.37;;;2.73;;
8777;SDS011;4425;50.872;4.712;2023-04-03T15:55:19;3.28;;;2.75;;
8777;SDS011;4425;50.872;4.712;2023-04-03T15:57:46;3.25;;;2.70;;
8777;SDS011;4425;50.872;4.712;2023-04-03T16:00:13;4.28;;;2.72;;
8777;SDS011;4425;50.872;4.712;2023-04-03T16:02:41;3.13;;;2.72;;